createdAt,value
2022-10-12T00:02:04.414Z,85.40
2022-10-12T00:05:02.022Z,85.63
2022-10-12T00:07:59.056Z,86.91
2022-10-12T00:10:56.094Z,86.54
2022-10-12T00:13:53.044Z,87.19
2022-10-12T00:16:49.996Z,89.49
2022-10-12T00:19:47.002Z,87.88
2022-10-12T00:22:44.140Z,87.05
2022-10-12T00:25:41.491Z,86.12
2022-10-12T00:28:39.000Z,86.81
2022-10-12T00:31:36.346Z,86.39
2022-10-12T00:34:33.280Z,85.79
2022-10-12T00:37:29.842Z,86.60
2022-10-12T00:40:27.163Z,85.65
2022-10-12T00:43:37.965Z,86.04
2022-10-12T00:46:45.022Z,85.61
2022-10-12T00:49:42.110Z,85.13
2022-10-12T00:52:42.801Z,86.31
2022-10-12T00:55:43.677Z,85.98
2022-10-12T00:58:41.145Z,85.97
2022-10-12T01:01:38.081Z,85.77
2022-10-12T01:04:34.897Z,86.44
2022-10-12T01:07:32.193Z,87.01
2022-10-12T01:10:29.244Z,86.04
2022-10-12T01:13:26.266Z,85.93
2022-10-12T01:16:29.797Z,84.99
2022-10-12T01:19:45.267Z,84.68
2022-10-12T01:22:45.872Z,84.68
2022-10-12T01:25:52.228Z,86.86
2022-10-12T01:28:52.037Z,87.98
2022-10-12T01:32:06.818Z,86.82
2022-10-12T01:35:16.705Z,86.42
2022-10-12T01:38:34.424Z,87.45
2022-10-12T01:41:54.129Z,86.45
2022-10-12T01:44:51.197Z,86.20
2022-10-12T01:47:52.641Z,85.43
2022-10-12T01:50:51.425Z,85.92
2022-10-12T01:54:03.739Z,87.25
2022-10-12T01:57:06.461Z,92.83
2022-10-12T02:00:07.837Z,89.73
2022-10-12T02:03:20.873Z,92.46
2022-10-12T02:06:19.792Z,90.57
2022-10-12T02:09:26.352Z,90.61
2022-10-12T02:12:23.897Z,93.11
2022-10-12T02:15:21.236Z,90.12
2022-10-12T02:18:18.715Z,88.86
2022-10-12T02:21:18.094Z,88.41
2022-10-12T02:24:15.283Z,89.11
2022-10-12T02:27:12.517Z,89.97
2022-10-12T02:30:09.634Z,89.06
2022-10-12T02:33:14.761Z,89.83
2022-10-12T02:36:14.013Z,88.67
2022-10-12T02:39:17.097Z,89.61
2022-10-12T02:42:17.915Z,89.55
2022-10-12T02:45:15.410Z,88.84
2022-10-12T02:48:13.869Z,91.66
2022-10-12T02:51:11.490Z,91.71
2022-10-12T02:54:08.066Z,91.57
2022-10-12T02:57:05.081Z,89.16
2022-10-12T03:00:02.418Z,87.75
2022-10-12T03:02:59.421Z,88.69
2022-10-12T03:05:56.578Z,87.45
2022-10-12T03:08:56.060Z,90.58
2022-10-12T03:11:53.091Z,89.76
2022-10-12T03:14:50.236Z,87.14
2022-10-12T03:17:47.182Z,85.95
2022-10-12T03:20:48.607Z,83.80
2022-10-12T03:23:46.070Z,85.47
2022-10-12T03:26:43.320Z,87.01
2022-10-12T03:29:40.229Z,87.63
2022-10-12T03:32:38.097Z,87.10
2022-10-12T03:35:35.459Z,87.62
2022-10-12T03:38:31.955Z,88.01
2022-10-12T03:41:29.494Z,90.06
2022-10-12T03:44:26.580Z,94.29
2022-10-12T03:47:23.116Z,94.91
2022-10-12T03:50:20.110Z,92.54
2022-10-12T03:53:17.343Z,87.44
2022-10-12T03:56:14.492Z,87.25
2022-10-12T03:59:11.419Z,87.58
2022-10-12T04:02:08.164Z,88.22
2022-10-12T04:05:05.649Z,87.73
2022-10-12T04:08:02.021Z,86.64
2022-10-12T04:10:59.432Z,86.14
2022-10-12T04:13:56.194Z,86.63
2022-10-12T04:16:54.421Z,86.69
2022-10-12T04:19:51.201Z,87.12
2022-10-12T04:22:48.037Z,86.98
2022-10-12T04:25:45.519Z,86.70
2022-10-12T04:28:42.427Z,85.53
2022-10-12T04:31:39.141Z,85.08
2022-10-12T04:34:38.795Z,85.97
2022-10-12T04:37:36.407Z,85.42
2022-10-12T04:40:33.181Z,85.80
2022-10-12T04:43:30.470Z,86.40
2022-10-12T04:46:27.238Z,88.55
2022-10-12T04:49:24.163Z,88.66
2022-10-12T04:52:21.182Z,87.14
2022-10-12T04:55:17.962Z,87.97
2022-10-12T04:58:15.574Z,87.67
2022-10-12T05:01:12.727Z,87.66
2022-10-12T05:04:10.045Z,88.12
2022-10-12T05:07:07.505Z,87.72
2022-10-12T05:10:04.825Z,87.53
2022-10-12T05:13:02.468Z,87.35
2022-10-12T05:15:59.302Z,87.71
2022-10-12T05:18:56.148Z,88.68
2022-10-12T05:21:54.724Z,87.84
2022-10-12T05:24:53.916Z,88.37
2022-10-12T05:27:51.394Z,88.72
2022-10-12T05:30:51.963Z,87.96
2022-10-12T05:33:49.129Z,89.19
2022-10-12T05:36:46.691Z,88.92
2022-10-12T05:39:43.485Z,89.79
2022-10-12T05:42:40.657Z,92.12
2022-10-12T05:45:38.213Z,91.72
2022-10-12T05:48:34.985Z,91.89
2022-10-12T05:51:32.452Z,90.91
2022-10-12T05:54:29.130Z,89.53
2022-10-12T05:57:26.322Z,91.19
2022-10-12T06:00:22.973Z,91.55
2022-10-12T06:03:24.065Z,92.70
2022-10-12T06:06:23.575Z,94.63
2022-10-12T06:09:20.490Z,94.50
2022-10-12T06:12:17.240Z,93.20
2022-10-12T06:15:14.178Z,94.21
2022-10-12T06:18:11.566Z,94.18
2022-10-12T06:21:31.918Z,92.39
2022-10-12T06:24:25.297Z,91.24
2022-10-12T06:27:22.296Z,90.95
2022-10-12T06:30:19.247Z,89.73
2022-10-12T06:33:16.089Z,88.78
2022-10-12T06:36:13.623Z,87.07
2022-10-12T06:39:10.704Z,86.33
2022-10-12T06:42:08.799Z,88.45
2022-10-12T06:45:11.072Z,91.65
2022-10-12T06:48:08.453Z,91.56
2022-10-12T06:51:05.770Z,90.63
2022-10-12T06:54:03.405Z,89.88
2022-10-12T06:57:00.638Z,89.64
2022-10-12T06:59:57.401Z,89.38
2022-10-12T07:02:54.422Z,88.48
2022-10-12T07:05:51.287Z,88.47
2022-10-12T07:08:50.227Z,90.79
2022-10-12T07:11:47.636Z,94.01
2022-10-12T07:14:44.795Z,95.04
2022-10-12T07:17:42.254Z,95.04
2022-10-12T07:20:41.004Z,95.75
2022-10-12T07:23:42.481Z,96.78
2022-10-12T07:26:40.989Z,98.19
2022-10-12T07:29:38.738Z,98.04
2022-10-12T07:32:35.306Z,96.15
2022-10-12T07:35:32.153Z,96.29
2022-10-12T07:38:29.643Z,95.91
2022-10-12T07:41:27.544Z,95.50
2022-10-12T07:44:24.727Z,96.42
2022-10-12T07:47:21.809Z,97.62
2022-10-12T07:50:18.123Z,97.78
2022-10-12T07:53:15.670Z,97.79
2022-10-12T07:56:15.362Z,96.98
2022-10-12T07:59:12.298Z,96.60
2022-10-12T08:02:10.992Z,96.81
2022-10-12T08:05:08.682Z,96.66
2022-10-12T08:08:05.658Z,95.72
2022-10-12T08:11:02.560Z,95.32
2022-10-12T08:13:59.336Z,96.66
2022-10-12T08:16:56.589Z,97.02
2022-10-12T08:19:53.470Z,96.05
2022-10-12T08:22:50.561Z,96.94
2022-10-12T08:25:54.294Z,96.77
2022-10-12T08:28:51.405Z,96.42
2022-10-12T08:31:51.601Z,96.05
2022-10-12T08:34:48.331Z,96.78
2022-10-12T08:37:45.885Z,98.12
2022-10-12T08:40:56.664Z,98.19
2022-10-12T08:44:17.813Z,96.78
2022-10-12T08:47:25.657Z,96.48
2022-10-12T08:50:37.878Z,96.91
2022-10-12T08:53:40.175Z,97.86
2022-10-12T08:56:40.286Z,98.81
2022-10-12T08:59:37.320Z,99.52
2022-10-12T09:02:49.929Z,98.93
2022-10-12T09:06:11.873Z,98.72
2022-10-12T09:09:43.230Z,97.22
2022-10-12T09:12:55.501Z,94.88
2022-10-12T09:16:21.310Z,94.93
2022-10-12T09:19:37.446Z,92.06
2022-10-12T09:22:35.101Z,91.84
2022-10-12T09:25:32.582Z,90.33
2022-10-12T09:28:38.177Z,90.55
2022-10-12T09:32:00.459Z,90.31
2022-10-12T09:34:57.864Z,89.53
2022-10-12T09:37:54.566Z,87.15
2022-10-12T09:40:51.402Z,87.38
2022-10-12T09:43:53.853Z,85.62
2022-10-12T09:47:01.579Z,82.22
2022-10-12T09:50:02.972Z,83.07
2022-10-12T09:53:00.372Z,82.37
2022-10-12T09:56:09.702Z,81.00
2022-10-12T09:59:44.124Z,80.54
2022-10-12T10:02:48.694Z,80.05
2022-10-12T10:05:45.413Z,79.38
2022-10-12T10:08:44.406Z,78.89
2022-10-12T10:11:41.234Z,78.25
2022-10-12T10:14:38.529Z,77.29
2022-10-12T10:17:35.505Z,77.59
2022-10-12T10:20:34.440Z,76.92
2022-10-12T10:23:35.222Z,75.01
2022-10-12T10:26:58.188Z,74.16
2022-10-12T10:30:04.836Z,74.29
2022-10-12T10:33:17.357Z,73.05
2022-10-12T10:36:22.368Z,70.85
2022-10-12T10:39:24.990Z,70.27
2022-10-12T10:42:25.159Z,68.26
2022-10-12T10:45:31.829Z,68.67
2022-10-12T10:48:30.349Z,66.82
2022-10-12T10:51:40.930Z,65.82
2022-10-12T10:54:38.828Z,65.89
2022-10-12T10:57:35.759Z,62.79
2022-10-12T11:00:39.006Z,60.79
2022-10-12T11:04:11.682Z,59.19
2022-10-12T11:07:19.870Z,59.77
2022-10-12T11:10:42.140Z,58.82
2022-10-12T11:13:52.631Z,57.62
2022-10-12T11:17:02.162Z,55.82
2022-10-12T11:20:29.275Z,58.09
2022-10-12T11:23:47.101Z,58.96
2022-10-12T11:27:05.991Z,57.25
2022-10-12T11:30:11.384Z,59.66
2022-10-12T11:33:35.133Z,58.53
2022-10-12T11:36:33.711Z,59.82
2022-10-12T11:39:39.177Z,51.93
2022-10-12T11:42:43.418Z,50.33
2022-10-12T11:45:43.199Z,52.85
2022-10-12T11:48:56.547Z,55.51
2022-10-12T11:51:55.633Z,57.60
2022-10-12T11:55:27.709Z,58.92
2022-10-12T11:58:42.376Z,58.59
2022-10-12T12:01:45.750Z,59.46
2022-10-12T12:04:44.305Z,59.83
2022-10-12T12:07:50.853Z,61.35
2022-10-12T12:11:03.000Z,62.09
2022-10-12T12:14:21.351Z,62.19
2022-10-12T12:17:18.828Z,61.07
2022-10-12T12:20:44.477Z,58.06
2022-10-12T12:23:55.023Z,60.02
2022-10-12T12:26:52.513Z,61.57
2022-10-12T12:29:52.699Z,62.94
2022-10-12T12:33:00.816Z,60.80
2022-10-12T12:36:08.229Z,61.85
2022-10-12T12:39:07.074Z,61.71
2022-10-12T12:42:08.515Z,60.73
2022-10-12T12:45:38.937Z,61.72
2022-10-12T12:48:41.807Z,60.76
2022-10-12T12:51:40.819Z,61.63
2022-10-12T12:54:41.849Z,61.40
2022-10-12T12:57:45.194Z,60.82
2022-10-12T13:01:01.181Z,59.48
2022-10-12T13:04:07.439Z,60.33
2022-10-12T13:07:33.149Z,62.08
2022-10-12T13:10:39.943Z,61.77
2022-10-12T13:13:41.898Z,61.71
2022-10-12T13:20:17.680Z,59.40
2022-10-12T13:23:17.373Z,59.58
2022-10-12T13:26:18.062Z,58.33
2022-10-12T13:29:49.409Z,57.91
2022-10-12T13:33:13.508Z,59.59
2022-10-12T13:36:30.784Z,56.13
2022-10-12T13:39:27.779Z,53.87
2022-10-12T13:42:30.912Z,53.62
2022-10-12T13:45:28.485Z,55.39
2022-10-12T13:48:53.748Z,57.12
2022-10-12T13:51:43.962Z,55.67
2022-10-12T13:54:44.374Z,55.42
2022-10-12T13:57:42.891Z,55.06
2022-10-12T14:00:39.573Z,56.50
2022-10-12T14:03:41.822Z,55.82
2022-10-12T14:06:38.467Z,55.58
2022-10-12T14:09:44.505Z,55.49
2022-10-12T14:12:42.112Z,57.23
2022-10-12T14:15:39.907Z,56.83
2022-10-12T14:18:42.875Z,55.69
2022-10-12T14:21:39.751Z,56.92
2022-10-12T14:24:36.682Z,55.64
2022-10-12T14:27:34.111Z,56.51
2022-10-12T14:30:36.763Z,56.12
2022-10-12T14:33:33.866Z,57.52
2022-10-12T14:36:30.772Z,57.48
2022-10-12T14:39:27.694Z,56.46
2022-10-12T14:42:31.926Z,55.94
2022-10-12T14:45:28.980Z,56.84
2022-10-12T14:48:25.930Z,57.47
2022-10-12T14:51:22.724Z,56.23
2022-10-12T14:54:19.822Z,56.83
2022-10-12T14:57:17.151Z,57.44
2022-10-12T15:00:23.913Z,56.46
2022-10-12T15:03:20.741Z,57.86
2022-10-12T15:06:17.809Z,58.21
2022-10-12T15:09:14.725Z,59.25
2022-10-12T15:12:13.327Z,56.94
2022-10-12T15:15:31.490Z,56.82
2022-10-12T15:18:28.883Z,57.58
2022-10-12T15:21:25.801Z,57.39
2022-10-12T15:24:22.861Z,56.97
2022-10-12T15:27:19.869Z,58.68
2022-10-12T15:30:17.464Z,57.05
2022-10-12T15:33:14.764Z,57.36
2022-10-12T15:36:11.673Z,57.09
2022-10-12T15:39:09.054Z,56.09
2022-10-12T15:42:06.103Z,56.40
2022-10-12T15:45:03.001Z,58.11
2022-10-12T15:48:00.183Z,56.61
2022-10-12T15:50:58.114Z,57.78
2022-10-12T15:53:55.568Z,58.29
2022-10-12T15:56:52.825Z,58.32
2022-10-12T15:59:52.409Z,59.38
2022-10-12T16:02:50.123Z,61.58
2022-10-12T16:05:48.039Z,59.72
2022-10-12T16:08:44.818Z,61.49
2022-10-12T16:11:42.003Z,62.33
2022-10-12T16:14:38.796Z,62.19
2022-10-12T16:17:35.631Z,62.85
2022-10-12T16:20:33.310Z,61.65
2022-10-12T16:23:32.973Z,64.61
2022-10-12T16:26:29.920Z,64.69
2022-10-12T16:29:26.551Z,64.54
2022-10-12T16:32:24.191Z,64.79
2022-10-12T16:35:20.783Z,64.88
2022-10-12T16:38:20.119Z,66.77
2022-10-12T16:41:17.171Z,67.27
2022-10-12T16:44:13.840Z,67.11
2022-10-12T16:47:11.305Z,68.37
2022-10-12T16:50:09.091Z,67.08
2022-10-12T16:53:06.177Z,66.33
2022-10-12T16:56:03.294Z,67.92
2022-10-12T16:59:01.171Z,67.76
2022-10-12T17:01:59.426Z,67.07
2022-10-12T17:04:56.760Z,67.38
2022-10-12T17:07:53.865Z,68.05
2022-10-12T17:10:51.099Z,69.90
2022-10-12T17:13:49.301Z,71.25
2022-10-12T17:16:49.986Z,70.25
2022-10-12T17:19:47.277Z,71.19
2022-10-12T17:22:44.821Z,70.98
2022-10-12T17:25:43.971Z,71.59
2022-10-12T17:28:41.261Z,70.61
2022-10-12T17:31:39.312Z,69.38
2022-10-12T17:34:41.468Z,71.03
2022-10-12T17:37:39.110Z,72.12
2022-10-12T17:40:39.841Z,73.16
2022-10-12T17:43:36.926Z,73.51
2022-10-12T17:46:34.116Z,75.79
2022-10-12T17:49:31.011Z,76.28
2022-10-12T17:52:28.096Z,75.61
2022-10-12T17:55:43.866Z,74.64
2022-10-12T17:58:43.575Z,76.99
2022-10-12T18:01:40.953Z,76.98
2022-10-12T18:04:37.863Z,77.16
2022-10-12T18:07:36.059Z,78.10
2022-10-12T18:10:32.681Z,76.91
2022-10-12T18:13:30.332Z,78.10
2022-10-12T18:16:29.835Z,79.12
2022-10-12T18:19:27.375Z,78.26
2022-10-12T18:22:25.267Z,77.29
2022-10-12T18:25:22.391Z,78.30
2022-10-12T18:28:20.167Z,78.38
2022-10-12T18:31:20.664Z,75.93
2022-10-12T18:34:18.111Z,76.47
2022-10-12T18:37:15.151Z,77.22
2022-10-12T18:40:12.261Z,75.86
2022-10-12T18:43:08.822Z,76.69
2022-10-12T18:46:10.716Z,77.39
2022-10-12T18:49:08.437Z,77.72
2022-10-12T18:52:06.046Z,78.97
2022-10-12T18:55:03.003Z,78.50
2022-10-12T18:57:59.914Z,76.71
2022-10-12T19:00:57.019Z,75.88
2022-10-12T19:03:55.048Z,75.77
2022-10-12T19:06:56.910Z,77.09
2022-10-12T19:09:55.321Z,77.13
2022-10-12T19:12:51.860Z,78.14
2022-10-12T19:15:48.860Z,77.89
2022-10-12T19:18:45.837Z,77.25
2022-10-12T19:21:45.229Z,77.70
2022-10-12T19:24:42.158Z,77.30
2022-10-12T19:27:38.797Z,78.50
2022-10-12T19:30:39.434Z,78.03
2022-10-12T19:33:37.162Z,78.39
2022-10-12T19:36:34.409Z,78.15
2022-10-12T19:39:33.091Z,77.79
2022-10-12T19:42:29.639Z,78.80
2022-10-12T19:45:26.980Z,77.82
2022-10-12T19:48:24.077Z,76.47
2022-10-12T19:51:21.747Z,76.59
2022-10-12T19:54:19.718Z,78.78
2022-10-12T19:57:17.068Z,79.26
2022-10-12T20:00:14.795Z,79.47
2022-10-12T20:03:14.278Z,80.17
2022-10-12T20:06:11.104Z,80.26
2022-10-12T20:09:08.309Z,79.66
2022-10-12T20:12:06.177Z,80.00
2022-10-12T20:15:02.757Z,80.67
2022-10-12T20:18:00.184Z,81.26
2022-10-12T20:20:57.322Z,80.97
2022-10-12T20:23:53.956Z,80.15
2022-10-12T20:26:50.886Z,80.07
2022-10-12T20:29:48.020Z,80.07
2022-10-12T20:32:44.967Z,80.60
2022-10-12T20:35:48.552Z,81.41
2022-10-12T20:38:46.105Z,81.27
2022-10-12T20:41:43.024Z,80.40
2022-10-12T20:44:39.981Z,81.65
2022-10-12T20:47:36.780Z,82.19
2022-10-12T20:50:34.227Z,82.75
2022-10-12T20:53:31.537Z,82.57
2022-10-12T20:56:29.764Z,82.10
2022-10-12T20:59:26.948Z,82.81
2022-10-12T21:02:23.957Z,83.54
2022-10-12T21:05:20.987Z,83.65
2022-10-12T21:08:17.905Z,83.04
2022-10-12T21:11:15.177Z,83.40
2022-10-12T21:14:13.051Z,83.74
2022-10-12T21:17:10.277Z,83.23
2022-10-12T21:20:07.685Z,83.18
2022-10-12T21:23:05.265Z,82.90
2022-10-12T21:26:17.724Z,83.54
2022-10-12T21:29:15.078Z,84.98
2022-10-12T21:32:11.829Z,84.60
2022-10-12T21:35:09.190Z,85.14
2022-10-12T21:38:05.913Z,84.92
2022-10-12T21:41:03.391Z,85.15
2022-10-12T21:43:59.971Z,85.66
2022-10-12T21:46:58.284Z,85.73
2022-10-12T21:49:55.059Z,85.47
2022-10-12T21:52:55.470Z,84.37
2022-10-12T21:55:55.347Z,85.32
2022-10-12T21:58:52.544Z,85.04
2022-10-12T22:01:49.931Z,85.23
2022-10-12T22:04:47.099Z,86.00
2022-10-12T22:07:44.270Z,86.49
2022-10-12T22:10:43.163Z,86.60
2022-10-12T22:13:40.226Z,87.37
2022-10-12T22:16:37.066Z,87.36
2022-10-12T22:19:34.124Z,86.99
2022-10-12T22:22:31.322Z,87.69
2022-10-12T22:25:28.223Z,87.30
2022-10-12T22:28:24.964Z,86.75
2022-10-12T22:31:22.920Z,86.84
2022-10-12T22:34:20.460Z,87.15
2022-10-12T22:37:17.239Z,87.14
2022-10-12T22:40:14.325Z,87.67
2022-10-12T22:43:11.240Z,87.62
2022-10-12T22:46:08.150Z,88.02
2022-10-12T22:49:05.337Z,87.54
2022-10-12T22:52:02.359Z,87.65
2022-10-12T22:55:00.240Z,87.65
2022-10-12T22:57:57.124Z,87.72
2022-10-12T23:01:02.965Z,88.04
2022-10-12T23:04:02.591Z,88.59
2022-10-12T23:07:00.014Z,89.12
2022-10-12T23:09:57.309Z,89.09
2022-10-12T23:12:54.315Z,89.94
2022-10-12T23:15:51.160Z,89.20
2022-10-12T23:18:48.118Z,88.55
2022-10-12T23:21:45.018Z,88.85
2022-10-12T23:24:42.280Z,89.60
2022-10-12T23:27:39.236Z,90.92
2022-10-12T23:30:37.725Z,91.73
2022-10-12T23:33:35.382Z,91.76
2022-10-12T23:36:32.459Z,92.74
2022-10-12T23:39:29.383Z,92.63
2022-10-12T23:42:26.351Z,93.26
2022-10-12T23:45:24.397Z,93.62
2022-10-12T23:48:21.629Z,93.41
2022-10-12T23:51:19.444Z,93.46
2022-10-12T23:54:15.840Z,93.21
2022-10-12T23:57:34.342Z,93.26
